createdAt,value
2023-04-01T00:01:17.663Z,97095.88
2023-04-01T00:03:45.029Z,97101.16
2023-04-01T00:06:16.875Z,97090.91
2023-04-01T00:08:43.744Z,97102.47
2023-04-01T00:11:10.523Z,97100.13
2023-04-01T00:13:37.496Z,97103.28
2023-04-01T00:16:17.678Z,97097.50
2023-04-01T00:18:48.501Z,97097.03
2023-04-01T00:21:16.205Z,97086.91
2023-04-01T00:23:43.137Z,97092.53
2023-04-01T00:26:09.841Z,97099.16
2023-04-01T00:28:37.224Z,97090.56
2023-04-01T00:31:11.423Z,97090.25
2023-04-01T00:33:39.248Z,97094.03
2023-04-01T00:36:17.932Z,97090.91
2023-04-01T00:38:45.790Z,97093.03
2023-04-01T00:41:15.886Z,97083.97
2023-04-01T00:43:44.621Z,97083.28
2023-04-01T00:46:11.585Z,97077.53
2023-04-01T00:48:44.934Z,97082.31
2023-04-01T00:51:19.825Z,97091.91
2023-04-01T00:53:51.326Z,97079.00
2023-04-01T00:56:26.231Z,97080.50
2023-04-01T00:58:59.156Z,97083.31
2023-04-01T01:01:26.880Z,97085.44
2023-04-01T01:03:53.765Z,97085.97
2023-04-01T01:06:27.533Z,97084.94
2023-04-01T01:09:08.685Z,97090.09
2023-04-01T01:11:44.257Z,97093.72
2023-04-01T01:14:15.463Z,97090.91
2023-04-01T01:16:53.090Z,97090.25
2023-04-01T01:20:07.731Z,97086.28
2023-04-01T01:23:08.092Z,97085.78
2023-04-01T01:25:59.620Z,97089.94
2023-04-01T01:28:51.312Z,97081.47
2023-04-01T01:31:28.587Z,97088.91
2023-04-01T01:33:58.233Z,97083.28
2023-04-01T01:36:29.664Z,97076.03
2023-04-01T01:38:57.997Z,97082.97
2023-04-01T01:41:27.726Z,97084.94
2023-04-01T01:43:57.689Z,97082.31
2023-04-01T01:46:27.330Z,97078.34
2023-04-01T01:48:55.442Z,97072.09
2023-04-01T01:51:23.952Z,97075.72
2023-04-01T01:53:51.228Z,97071.72
2023-04-01T01:56:20.774Z,97076.53
2023-04-01T01:58:53.020Z,97079.84
2023-04-01T02:01:26.892Z,97083.63
2023-04-01T02:03:55.466Z,97091.84
2023-04-01T02:06:28.889Z,97077.97
2023-04-01T02:09:11.662Z,97089.19
2023-04-01T02:11:51.372Z,97082.91
2023-04-01T02:14:22.732Z,97079.25
2023-04-01T02:17:12.338Z,97081.56
2023-04-01T02:19:44.573Z,97076.28
2023-04-01T02:22:17.707Z,97076.94
2023-04-01T02:24:46.507Z,97075.59
2023-04-01T02:27:13.918Z,97078.56
2023-04-01T02:29:40.750Z,97077.56
2023-04-01T02:32:08.765Z,97074.25
2023-04-01T02:34:36.020Z,97071.97
2023-04-01T02:37:03.079Z,97072.28
2023-04-01T02:39:29.718Z,97082.53
2023-04-01T02:41:56.443Z,97073.28
2023-04-01T02:44:23.090Z,97081.69
2023-04-01T02:46:49.827Z,97073.63
2023-04-01T02:49:16.480Z,97072.78
2023-04-01T02:51:43.094Z,97072.44
2023-04-01T02:54:09.752Z,97073.09
2023-04-01T02:56:36.397Z,97079.19
2023-04-01T02:59:03.045Z,97067.00
2023-04-01T03:01:29.785Z,97093.06
2023-04-01T03:03:56.563Z,97081.53
2023-04-01T03:06:23.233Z,97079.06
2023-04-01T03:08:49.874Z,97080.56
2023-04-01T03:11:16.523Z,97082.53
2023-04-01T03:13:43.361Z,97078.91
2023-04-01T03:16:10.081Z,97077.25
2023-04-01T03:18:36.744Z,97084.47
2023-04-01T03:21:20.363Z,97081.53
2023-04-01T03:23:47.010Z,97078.91
2023-04-01T03:26:14.389Z,97088.47
2023-04-01T03:28:41.108Z,97078.91
2023-04-01T03:31:08.163Z,97082.53
2023-04-01T03:33:34.867Z,97083.66
2023-04-01T03:36:01.763Z,97073.28
2023-04-01T03:38:28.485Z,97068.66
2023-04-01T03:40:55.150Z,97075.28
2023-04-01T03:43:22.434Z,97082.53
2023-04-01T03:45:52.067Z,97070.63
2023-04-01T03:48:19.410Z,97083.84
2023-04-01T03:50:46.151Z,97084.03
2023-04-01T03:53:12.922Z,97080.22
2023-04-01T03:55:40.103Z,97082.22
2023-04-01T03:58:08.326Z,97083.34
2023-04-01T04:00:35.769Z,97084.00
2023-04-01T04:03:02.837Z,97084.00
2023-04-01T04:05:29.679Z,97087.31
2023-04-01T04:07:56.694Z,97079.53
2023-04-01T04:10:24.384Z,97095.38
2023-04-01T04:12:51.693Z,97085.50
2023-04-01T04:15:18.615Z,97090.94
2023-04-01T04:17:46.774Z,97081.50
2023-04-01T04:20:13.826Z,97090.25
2023-04-01T04:22:40.816Z,97090.25
2023-04-01T04:25:08.561Z,97098.16
2023-04-01T04:27:36.222Z,97103.31
2023-04-01T04:30:03.065Z,97098.69
2023-04-01T04:32:30.732Z,97106.09
2023-04-01T04:34:57.949Z,97105.41
2023-04-01T04:37:24.693Z,97114.34
2023-04-01T04:39:51.296Z,97107.72
2023-04-01T04:42:17.965Z,97110.03
2023-04-01T04:44:44.685Z,97102.63
2023-04-01T04:47:11.365Z,97105.59
2023-04-01T04:49:38.055Z,97111.19
2023-04-01T04:52:04.773Z,97107.22
2023-04-01T04:54:31.689Z,97119.09
2023-04-01T04:56:58.331Z,97117.78
2023-04-01T04:59:25.015Z,97122.25
2023-04-01T05:01:51.698Z,97118.28
2023-04-01T05:04:18.323Z,97123.34
2023-04-01T05:06:46.113Z,97120.56
2023-04-01T05:09:13.267Z,97121.41
2023-04-01T05:11:39.921Z,97118.06
2023-04-01T05:14:06.762Z,97117.91
2023-04-01T05:16:33.590Z,97125.84
2023-04-01T05:19:00.424Z,97122.84
2023-04-01T05:21:27.068Z,97116.59
2023-04-01T05:23:53.688Z,97113.81
2023-04-01T05:26:20.444Z,97117.47
2023-04-01T05:28:47.083Z,97111.22
2023-04-01T05:31:13.859Z,97109.25
2023-04-01T05:33:40.845Z,97112.88
2023-04-01T05:36:13.184Z,97117.81
2023-04-01T05:38:40.725Z,97117.53
2023-04-01T05:41:07.493Z,97115.22
2023-04-01T05:43:37.743Z,97117.03
2023-04-01T05:46:04.442Z,97113.56
2023-04-01T05:48:31.215Z,97114.88
2023-04-01T05:50:57.916Z,97119.53
2023-04-01T05:53:24.592Z,97114.25
2023-04-01T05:55:51.242Z,97122.00
2023-04-01T05:58:17.838Z,97120.19
2023-04-01T06:00:44.476Z,97121.19
2023-04-01T06:03:11.225Z,97120.53
2023-04-01T06:05:43.223Z,97116.22
2023-04-01T06:08:20.474Z,97127.81
2023-04-01T06:10:53.547Z,97119.69
2023-04-01T06:13:52.202Z,97123.84
2023-04-01T06:16:56.450Z,97125.38
2023-04-01T06:19:40.929Z,97126.03
2023-04-01T06:22:32.608Z,97130.47
2023-04-01T06:25:04.894Z,97132.97
2023-04-01T06:28:00.800Z,97128.53
2023-04-01T06:30:46.050Z,97131.31
2023-04-01T06:33:32.580Z,97130.19
2023-04-01T06:36:27.076Z,97134.63
2023-04-01T06:39:04.362Z,97140.41
2023-04-01T06:41:59.137Z,97140.94
2023-04-01T06:44:56.547Z,97134.47
2023-04-01T06:47:57.799Z,97139.59
2023-04-01T06:50:37.977Z,97136.47
2023-04-01T06:53:18.981Z,97134.34
2023-04-01T06:55:53.013Z,97143.44
2023-04-01T06:58:26.517Z,97148.72
2023-04-01T07:01:02.008Z,97141.81
2023-04-01T07:03:34.146Z,97136.66
2023-04-01T07:06:06.588Z,97138.81
2023-04-01T07:08:39.122Z,97143.44
2023-04-01T07:11:07.891Z,97150.91
2023-04-01T07:13:56.123Z,97144.78
2023-04-01T07:16:33.719Z,97154.69
2023-04-01T07:19:09.899Z,97148.41
2023-04-01T07:21:45.924Z,97158.81
2023-04-01T07:24:40.555Z,97148.06
2023-04-01T07:27:12.481Z,97142.50
2023-04-01T07:29:39.225Z,97154.38
2023-04-01T07:32:37.029Z,97153.53
2023-04-01T07:35:06.508Z,97155.03
2023-04-01T07:37:33.060Z,97147.78
2023-04-01T07:40:27.467Z,97155.53
2023-04-01T07:43:15.471Z,97151.25
2023-04-01T07:46:10.282Z,97158.69
2023-04-01T07:48:57.098Z,97157.34
2023-04-01T07:51:45.425Z,97167.09
2023-04-01T07:54:12.062Z,97156.69
2023-04-01T07:56:44.785Z,97158.81
2023-04-01T07:59:17.803Z,97161.97
2023-04-01T08:02:12.826Z,97149.88
2023-04-01T08:05:06.450Z,97165.13
2023-04-01T08:08:00.777Z,97168.59
2023-04-01T08:10:30.652Z,97167.09
2023-04-01T08:13:22.316Z,97176.19
2023-04-01T08:16:14.141Z,97174.88
2023-04-01T08:18:46.415Z,97181.31
2023-04-01T08:21:24.591Z,97173.56
2023-04-01T08:23:56.139Z,97185.47
2023-04-01T08:26:30.624Z,97181.50
2023-04-01T08:29:27.301Z,97189.91
2023-04-01T08:32:07.853Z,97191.38
2023-04-01T08:34:41.834Z,97186.44
2023-04-01T08:37:23.329Z,97184.31
2023-04-01T08:39:56.962Z,97180.16
2023-04-01T08:42:42.296Z,97188.09
2023-04-01T08:45:14.299Z,97183.66
2023-04-01T08:47:57.714Z,97180.81
2023-04-01T08:50:28.986Z,97187.63
2023-04-01T08:53:14.943Z,97192.09
2023-04-01T08:56:03.487Z,97183.81
2023-04-01T08:58:38.991Z,97192.88
2023-04-01T09:01:24.304Z,97193.41
2023-04-01T09:04:09.257Z,97180.81
2023-04-01T09:07:25.390Z,97192.06
2023-04-01T09:10:12.164Z,97196.03
2023-04-01T09:13:15.802Z,97190.22
2023-04-01T09:15:45.452Z,97183.78
2023-04-01T09:18:33.345Z,97195.38
2023-04-01T09:21:08.019Z,97183.09
2023-04-01T09:23:49.128Z,97196.19
2023-04-01T09:26:36.883Z,97202.63
2023-04-01T09:29:24.091Z,97190.50
2023-04-01T09:32:18.021Z,97194.28
2023-04-01T09:35:02.841Z,97185.00
2023-04-01T09:37:29.368Z,97195.44
2023-04-01T09:40:19.933Z,97201.22
2023-04-01T09:43:03.088Z,97201.41
2023-04-01T09:45:56.226Z,97202.69
2023-04-01T09:48:39.884Z,97204.38
2023-04-01T09:51:12.253Z,97201.19
2023-04-01T09:53:57.660Z,97207.16
2023-04-01T09:56:59.090Z,97203.84
2023-04-01T09:59:50.306Z,97209.09
2023-04-01T10:02:35.336Z,97215.91
2023-04-01T10:05:33.295Z,97210.19
2023-04-01T10:08:40.690Z,97217.59
2023-04-01T10:11:13.317Z,97205.81
2023-04-01T10:14:28.468Z,97216.63
2023-04-01T10:17:13.252Z,97215.63
2023-04-01T10:20:10.923Z,97214.94
2023-04-01T10:22:46.481Z,97214.31
2023-04-01T10:25:32.165Z,97220.47
2023-04-01T10:27:59.021Z,97216.28
2023-04-01T10:30:31.476Z,97211.03
2023-04-01T10:32:58.058Z,97212.84
2023-04-01T10:35:39.914Z,97218.44
2023-04-01T10:38:35.761Z,97213.84
2023-04-01T10:41:29.654Z,97217.41
2023-04-01T10:44:12.758Z,97217.00
2023-04-01T10:46:51.331Z,97211.44
2023-04-01T10:49:47.686Z,97214.50
2023-04-01T10:52:41.059Z,97214.78
2023-04-01T10:56:05.211Z,97211.56
2023-04-01T10:58:57.920Z,97203.78
2023-04-01T11:02:08.132Z,97202.47
2023-04-01T11:05:17.625Z,97202.47
2023-04-01T11:08:02.737Z,97211.25
2023-04-01T11:10:40.437Z,97207.00
2023-04-01T11:13:41.318Z,97213.94
2023-04-01T11:16:23.292Z,97210.00
2023-04-01T11:18:55.943Z,97218.44
2023-04-01T11:21:41.437Z,97221.78
2023-04-01T11:24:39.645Z,97223.03
2023-04-01T11:27:26.370Z,97224.31
2023-04-01T11:30:00.216Z,97227.16
2023-04-01T11:32:36.214Z,97232.47
2023-04-01T11:35:24.400Z,97226.84
2023-04-01T11:38:13.559Z,97224.69
2023-04-01T11:40:56.163Z,97226.38
2023-04-01T11:43:35.907Z,97231.31
2023-04-01T11:46:16.315Z,97232.00
2023-04-01T11:49:21.595Z,97239.94
2023-04-01T11:52:01.563Z,97237.97
2023-04-01T11:55:03.458Z,97242.63
2023-04-01T11:57:52.034Z,97243.44
2023-04-01T12:00:34.139Z,97245.56
2023-04-01T12:03:25.643Z,97246.88
2023-04-01T12:06:01.646Z,97245.06
2023-04-01T12:08:54.488Z,97247.19
2023-04-01T12:11:26.819Z,97248.81
2023-04-01T12:14:03.518Z,97248.56
2023-04-01T12:16:52.181Z,97253.91
2023-04-01T12:19:37.895Z,97253.75
2023-04-01T12:22:07.201Z,97252.28
2023-04-01T12:24:49.069Z,97255.34
2023-04-01T12:27:57.946Z,97259.34
2023-04-01T12:30:27.227Z,97256.06
2023-04-01T12:33:02.737Z,97256.06
2023-04-01T12:35:44.670Z,97242.88
2023-04-01T12:38:36.452Z,97255.94
2023-04-01T12:41:21.269Z,97257.22
2023-04-01T12:44:17.141Z,97264.56
2023-04-01T12:47:13.346Z,97251.66
2023-04-01T12:50:04.856Z,97257.47
2023-04-01T12:52:37.509Z,97256.97
2023-04-01T12:55:38.854Z,97255.56
2023-04-01T12:58:18.422Z,97249.84
2023-04-01T13:00:53.925Z,97253.06
2023-04-01T13:03:26.386Z,97262.75
2023-04-01T13:06:15.991Z,97258.22
2023-04-01T13:08:54.616Z,97257.97
2023-04-01T13:11:30.299Z,97268.91
2023-04-01T13:14:21.648Z,97274.75
2023-04-01T13:17:18.871Z,97269.63
2023-04-01T13:20:02.033Z,97277.41
2023-04-01T13:22:34.788Z,97284.88
2023-04-01T13:25:22.613Z,97288.59
2023-04-01T13:28:01.086Z,97287.97
2023-04-01T13:30:40.704Z,97293.00
2023-04-01T13:33:29.319Z,97296.59
2023-04-01T13:36:14.382Z,97296.50
2023-04-01T13:39:00.772Z,97296.88
2023-04-01T13:41:51.974Z,97295.88
2023-04-01T13:44:49.236Z,97296.00
2023-04-01T13:47:33.806Z,97299.97
2023-04-01T13:50:18.939Z,97300.34
2023-04-01T13:53:02.868Z,97302.28
2023-04-01T13:56:07.054Z,97305.28
2023-04-01T13:59:08.453Z,97303.56
2023-04-01T14:01:51.083Z,97294.75
2023-04-01T14:04:32.190Z,97308.19
2023-04-01T14:07:04.761Z,97305.38
2023-04-01T14:09:39.608Z,97306.88
2023-04-01T14:12:17.511Z,97304.16
2023-04-01T14:15:02.300Z,97312.91
2023-04-01T14:17:37.230Z,97312.13
2023-04-01T14:20:22.003Z,97317.09
2023-04-01T14:23:21.968Z,97317.03
2023-04-01T14:26:16.665Z,97316.25
2023-04-01T14:28:58.236Z,97314.31
2023-04-01T14:31:49.159Z,97324.34
2023-04-01T14:34:51.762Z,97318.19
2023-04-01T14:37:26.592Z,97323.03
2023-04-01T14:40:14.218Z,97322.47
2023-04-01T14:42:59.678Z,97331.41
2023-04-01T14:45:26.384Z,97333.19
2023-04-01T14:47:57.360Z,97334.97
2023-04-01T14:50:31.511Z,97326.09
2023-04-01T14:53:14.299Z,97329.72
2023-04-01T14:55:43.750Z,97329.66
2023-04-01T14:58:12.292Z,97334.00
2023-04-01T15:01:07.058Z,97331.31
2023-04-01T15:04:23.542Z,97335.81
2023-04-01T15:07:22.090Z,97346.31
2023-04-01T15:10:08.894Z,97344.91
2023-04-01T15:12:47.342Z,97345.88
2023-04-01T15:15:46.259Z,97349.81
2023-04-01T15:18:22.448Z,97350.72
2023-04-01T15:20:55.021Z,97345.66
2023-04-01T15:23:40.653Z,97358.91
2023-04-01T15:26:18.665Z,97358.97
2023-04-01T15:28:59.219Z,97353.69
2023-04-01T15:31:33.837Z,97364.00
2023-04-01T15:34:30.665Z,97364.28
2023-04-01T15:37:27.165Z,97369.50
2023-04-01T15:40:25.072Z,97374.81
2023-04-01T15:43:24.141Z,97374.22
2023-04-01T15:46:19.856Z,97369.53
2023-04-01T15:48:58.722Z,97379.16
2023-04-01T15:51:31.415Z,97381.78
2023-04-01T15:54:35.684Z,97381.34
2023-04-01T15:57:23.538Z,97383.28
2023-04-01T16:00:17.636Z,97384.53
2023-04-01T16:02:52.628Z,97386.38
2023-04-01T16:05:26.798Z,97388.38
2023-04-01T16:07:59.317Z,97387.16
2023-04-01T16:10:33.093Z,97390.84
2023-04-01T16:13:31.117Z,97405.44
2023-04-01T16:16:18.296Z,97396.81
2023-04-01T16:19:08.166Z,97401.66
2023-04-01T16:21:53.539Z,97407.13
2023-04-01T16:24:35.735Z,97412.38
2023-04-01T16:27:09.211Z,97412.78
2023-04-01T16:29:48.521Z,97415.91
2023-04-01T16:32:50.624Z,97414.56
2023-04-01T16:35:26.001Z,97416.38
2023-04-01T16:38:00.264Z,97426.03
2023-04-01T16:41:13.102Z,97426.41
2023-04-01T16:43:53.021Z,97428.34
2023-04-01T16:46:36.592Z,97432.69
2023-04-01T16:49:12.201Z,97430.38
2023-04-01T16:51:57.841Z,97439.81
2023-04-01T16:54:46.654Z,97438.00
2023-04-01T16:57:20.757Z,97441.66
2023-04-01T16:59:49.200Z,97446.28
2023-04-01T17:02:21.665Z,97442.81
2023-04-01T17:05:04.333Z,97457.66
2023-04-01T17:08:11.239Z,97457.66
2023-04-01T17:11:05.857Z,97463.16
2023-04-01T17:13:37.167Z,97465.66
2023-04-01T17:16:03.809Z,97475.41
2023-04-01T17:18:53.321Z,97472.72
2023-04-01T17:22:10.829Z,97478.38
2023-04-01T17:25:09.480Z,97480.34
2023-04-01T17:28:02.945Z,97482.34
2023-04-01T17:30:36.164Z,97487.81
2023-04-01T17:33:32.882Z,97491.09
2023-04-01T17:36:31.081Z,97503.47
2023-04-01T17:39:16.411Z,97499.84
2023-04-01T17:42:01.140Z,97506.13
2023-04-01T17:45:00.725Z,97513.59
2023-04-01T17:47:32.940Z,97520.34
2023-04-01T17:50:08.583Z,97525.66
2023-04-01T17:52:43.026Z,97522.78
2023-04-01T17:55:38.557Z,97536.59
2023-04-01T17:58:17.740Z,97538.63
2023-04-01T18:01:25.569Z,97546.41
2023-04-01T18:04:27.738Z,97554.69
2023-04-01T18:07:05.685Z,97558.47
2023-04-01T18:10:16.952Z,97551.34
2023-04-01T18:12:46.786Z,97567.22
2023-04-01T18:15:52.249Z,97564.88
2023-04-01T18:18:45.024Z,97573.88
2023-04-01T18:21:30.210Z,97576.09
2023-04-01T18:24:14.567Z,97572.44
2023-04-01T18:26:45.118Z,97582.03
2023-04-01T18:29:19.096Z,97589.66
2023-04-01T18:31:50.822Z,97593.91
2023-04-01T18:34:32.454Z,97595.94
2023-04-01T18:37:34.236Z,97599.09
2023-04-01T18:40:19.278Z,97601.28
2023-04-01T18:42:53.999Z,97607.91
2023-04-01T18:45:44.493Z,97613.00
2023-04-01T18:48:33.452Z,97612.19
2023-04-01T18:51:16.415Z,97623.66
2023-04-01T18:54:28.266Z,97624.63
2023-04-01T18:57:13.328Z,97633.25
2023-04-01T19:00:05.689Z,97640.22
2023-04-01T19:02:41.858Z,97636.72
2023-04-01T19:05:24.436Z,97640.00
2023-04-01T19:07:53.762Z,97649.97
2023-04-01T19:10:42.991Z,97647.69
2023-04-01T19:13:52.974Z,97653.25
2023-04-01T19:17:07.180Z,97656.38
2023-04-01T19:19:57.001Z,97661.66
2023-04-01T19:22:26.648Z,97665.19
2023-04-01T19:25:34.328Z,97667.34
2023-04-01T19:28:38.232Z,97667.34
2023-04-01T19:31:26.407Z,97666.00
2023-04-01T19:34:18.932Z,97674.47
2023-04-01T19:37:10.558Z,97675.66
2023-04-01T19:39:40.065Z,97682.47
2023-04-01T19:42:16.227Z,97689.56
2023-04-01T19:44:57.256Z,97679.00
2023-04-01T19:47:40.651Z,97687.44
2023-04-01T19:50:38.044Z,97691.75
2023-04-01T19:53:26.107Z,97689.56
2023-04-01T19:56:18.886Z,97703.63
2023-04-01T19:58:57.694Z,97708.59
2023-04-01T20:01:43.743Z,97704.63
2023-04-01T20:04:57.252Z,97708.59
2023-04-01T20:07:40.517Z,97720.19
2023-04-01T20:10:26.409Z,97718.34
2023-04-01T20:13:30.488Z,97734.41
2023-04-01T20:16:03.484Z,97738.50
2023-04-01T20:18:53.667Z,97743.63
2023-04-01T20:21:23.196Z,97748.91
2023-04-01T20:23:54.076Z,97753.53
2023-04-01T20:26:24.255Z,97753.81
2023-04-01T20:29:21.769Z,97752.16
2023-04-01T20:32:31.230Z,97760.69
2023-04-01T20:35:19.765Z,97766.59
2023-04-01T20:38:07.153Z,97775.13
2023-04-01T20:40:47.944Z,97779.44
2023-04-01T20:43:29.857Z,97778.34
2023-04-01T20:45:59.740Z,97775.34
2023-04-01T20:48:32.344Z,97781.69
2023-04-01T20:51:03.233Z,97778.91
2023-04-01T20:53:52.248Z,97787.38
2023-04-01T20:57:17.219Z,97789.50
2023-04-01T20:59:46.994Z,97789.31
2023-04-01T21:02:49.094Z,97796.59
2023-04-01T21:05:33.117Z,97795.75
2023-04-01T21:08:11.968Z,97798.41
2023-04-01T21:11:09.076Z,97808.84
2023-04-01T21:13:41.859Z,97809.50
2023-04-01T21:16:26.972Z,97811.31
2023-04-01T21:19:26.876Z,97816.75
2023-04-01T21:22:12.256Z,97824.97
2023-04-01T21:24:50.007Z,97819.00
2023-04-01T21:27:31.475Z,97835.16
2023-04-01T21:30:20.622Z,97831.31
2023-04-01T21:32:56.388Z,97837.25
2023-04-01T21:35:50.567Z,97840.75
2023-04-01T21:38:28.732Z,97852.16
2023-04-01T21:41:28.339Z,97852.97
2023-04-01T21:44:15.238Z,97849.38
2023-04-01T21:47:09.489Z,97851.03
2023-04-01T21:50:24.542Z,97858.13
2023-04-01T21:53:15.920Z,97864.41
2023-04-01T21:56:01.378Z,97864.41
2023-04-01T21:59:00.207Z,97871.50
2023-04-01T22:01:41.947Z,97867.34
2023-04-01T22:04:36.209Z,97883.22
2023-04-01T22:07:15.947Z,97878.06
2023-04-01T22:10:00.948Z,97879.88
2023-04-01T22:12:44.774Z,97883.50
2023-04-01T22:15:53.102Z,97888.91
2023-04-01T22:18:38.159Z,97887.81
2023-04-01T22:21:41.760Z,97895.03
2023-04-01T22:24:27.392Z,97902.31
2023-04-01T22:26:53.941Z,97904.25
2023-04-01T22:29:33.100Z,97905.09
2023-04-01T22:32:14.180Z,97905.91
2023-04-01T22:34:54.428Z,97917.31
2023-04-01T22:37:36.668Z,97919.53
2023-04-01T22:40:40.439Z,97915.94
2023-04-01T22:43:20.493Z,97930.13
2023-04-01T22:45:53.183Z,97927.34
2023-04-01T22:49:23.617Z,97955.72
2023-04-01T22:52:07.126Z,97963.84
2023-04-01T22:54:43.260Z,97974.97
2023-04-01T22:57:18.044Z,97979.97
2023-04-01T23:00:14.035Z,97987.59
2023-04-01T23:02:47.766Z,97996.22
2023-04-01T23:05:19.475Z,97994.56
2023-04-01T23:08:07.896Z,98004.69
2023-04-01T23:10:45.050Z,98007.72
2023-04-01T23:13:17.315Z,98008.44
2023-04-01T23:15:45.216Z,98015.66
2023-04-01T23:18:42.436Z,98020.22
2023-04-01T23:21:26.081Z,98027.75
2023-04-01T23:24:31.541Z,98033.00
2023-04-01T23:27:14.772Z,98026.28
2023-04-01T23:29:43.752Z,98037.22
2023-04-01T23:32:19.464Z,98045.13
2023-04-01T23:34:51.362Z,98056.53
2023-04-01T23:37:20.266Z,98069.00
2023-04-01T23:39:50.207Z,98065.84
2023-04-01T23:42:20.886Z,98070.19
2023-04-01T23:44:50.144Z,98075.66
2023-04-01T23:47:38.856Z,98087.56
2023-04-01T23:50:12.851Z,98086.22
2023-04-01T23:52:53.353Z,98092.59
2023-04-01T23:55:27.153Z,98089.00
2023-04-01T23:58:18.214Z,98101.47
